sensor_id;sensor_type;location;lat;lon;timestamp;temperature;humidity
20068;DHT22;10194;50.824;7.134;2023-05-07T00:01:59;13.60;99.90
20068;DHT22;10194;50.824;7.134;2023-05-07T00:04:25;13.60;99.90
20068;DHT22;10194;50.824;7.134;2023-05-07T00:06:52;13.60;99.90
20068;DHT22;10194;50.824;7.134;2023-05-07T00:09:18;13.60;99.90
20068;DHT22;10194;50.824;7.134;2023-05-07T00:11:44;13.60;99.90
20068;DHT22;10194;50.824;7.134;2023-05-07T00:14:12;13.60;99.90
20068;DHT22;10194;50.824;7.134;2023-05-07T00:16:47;13.60;99.90
20068;DHT22;10194;50.824;7.134;2023-05-07T00:19:13;13.50;99.90
20068;DHT22;10194;50.824;7.134;2023-05-07T00:21:42;13.50;99.90
20068;DHT22;10194;50.824;7.134;2023-05-07T00:24:08;13.60;99.90
20068;DHT22;10194;50.824;7.134;2023-05-07T00:26:34;13.60;99.90
20068;DHT22;10194;50.824;7.134;2023-05-07T00:29:00;13.60;99.90
20068;DHT22;10194;50.824;7.134;2023-05-07T00:31:26;13.60;99.90
20068;DHT22;10194;50.824;7.134;2023-05-07T00:33:52;13.70;99.90
20068;DHT22;10194;50.824;7.134;2023-05-07T00:36:21;13.70;99.90
20068;DHT22;10194;50.824;7.134;2023-05-07T00:38:50;13.70;99.90
20068;DHT22;10194;50.824;7.134;2023-05-07T00:41:15;13.80;99.90
20068;DHT22;10194;50.824;7.134;2023-05-07T00:43:44;13.80;99.90
20068;DHT22;10194;50.824;7.134;2023-05-07T00:46:11;13.80;99.90
20068;DHT22;10194;50.824;7.134;2023-05-07T00:48:41;13.80;99.90
20068;DHT22;10194;50.824;7.134;2023-05-07T00:51:11;13.80;99.90
20068;DHT22;10194;50.824;7.134;2023-05-07T00:53:38;13.70;99.90
20068;DHT22;10194;50.824;7.134;2023-05-07T00:56:04;13.70;99.90
20068;DHT22;10194;50.824;7.134;2023-05-07T00:58:32;13.60;99.90
20068;DHT22;10194;50.824;7.134;2023-05-07T01:00:58;13.60;99.90
20068;DHT22;10194;50.824;7.134;2023-05-07T01:03:24;13.60;99.90
20068;DHT22;10194;50.824;7.134;2023-05-07T01:05:52;13.60;99.90
20068;DHT22;10194;50.824;7.134;2023-05-07T01:08:20;13.50;99.90
20068;DHT22;10194;50.824;7.134;2023-05-07T01:10:46;13.50;99.90
20068;DHT22;10194;50.824;7.134;2023-05-07T01:13:12;13.50;99.90
20068;DHT22;10194;50.824;7.134;2023-05-07T01:15:39;13.50;99.90
20068;DHT22;10194;50.824;7.134;2023-05-07T01:18:06;13.50;99.90
20068;DHT22;10194;50.824;7.134;2023-05-07T01:20:32;13.50;99.90
20068;DHT22;10194;50.824;7.134;2023-05-07T01:23:00;13.40;99.90
20068;DHT22;10194;50.824;7.134;2023-05-07T01:25:26;13.40;99.90
20068;DHT22;10194;50.824;7.134;2023-05-07T01:27:52;13.40;99.90
20068;DHT22;10194;50.824;7.134;2023-05-07T01:30:19;13.50;99.90
20068;DHT22;10194;50.824;7.134;2023-05-07T01:32:50;13.50;99.90
20068;DHT22;10194;50.824;7.134;2023-05-07T01:35:20;13.40;99.90
20068;DHT22;10194;50.824;7.134;2023-05-07T01:37:48;13.50;99.90
20068;DHT22;10194;50.824;7.134;2023-05-07T01:40:14;13.40;99.90
20068;DHT22;10194;50.824;7.134;2023-05-07T01:42:42;13.60;99.90
20068;DHT22;10194;50.824;7.134;2023-05-07T01:45:09;13.70;99.90
20068;DHT22;10194;50.824;7.134;2023-05-07T01:47:36;13.80;99.90
20068;DHT22;10194;50.824;7.134;2023-05-07T01:50:02;13.80;99.90
20068;DHT22;10194;50.824;7.134;2023-05-07T01:52:30;13.90;99.90
20068;DHT22;10194;50.824;7.134;2023-05-07T01:54:56;13.90;99.90
20068;DHT22;10194;50.824;7.134;2023-05-07T01:57:22;14.00;99.90
20068;DHT22;10194;50.824;7.134;2023-05-07T01:59:48;14.00;99.90
20068;DHT22;10194;50.824;7.134;2023-05-07T02:02:13;14.00;99.90
20068;DHT22;10194;50.824;7.134;2023-05-07T02:04:39;14.00;99.90
20068;DHT22;10194;50.824;7.134;2023-05-07T02:07:05;14.00;99.90
20068;DHT22;10194;50.824;7.134;2023-05-07T02:09:31;13.90;99.90
20068;DHT22;10194;50.824;7.134;2023-05-07T02:11:57;14.00;99.90
20068;DHT22;10194;50.824;7.134;2023-05-07T02:14:22;13.90;99.90
20068;DHT22;10194;50.824;7.134;2023-05-07T02:16:48;13.90;99.90
20068;DHT22;10194;50.824;7.134;2023-05-07T02:19:14;13.90;99.90
20068;DHT22;10194;50.824;7.134;2023-05-07T02:21:39;13.80;99.90
20068;DHT22;10194;50.824;7.134;2023-05-07T02:24:05;13.80;99.90
20068;DHT22;10194;50.824;7.134;2023-05-07T02:26:31;13.80;99.90
20068;DHT22;10194;50.824;7.134;2023-05-07T02:28:57;13.80;99.90
20068;DHT22;10194;50.824;7.134;2023-05-07T02:31:23;13.80;99.90
20068;DHT22;10194;50.824;7.134;2023-05-07T02:33:48;13.80;99.90
20068;DHT22;10194;50.824;7.134;2023-05-07T02:36:14;13.80;99.90
20068;DHT22;10194;50.824;7.134;2023-05-07T02:38:40;13.80;99.90
20068;DHT22;10194;50.824;7.134;2023-05-07T02:41:06;13.80;99.90
20068;DHT22;10194;50.824;7.134;2023-05-07T02:43:31;13.70;99.90
20068;DHT22;10194;50.824;7.134;2023-05-07T02:46:01;13.70;99.90
20068;DHT22;10194;50.824;7.134;2023-05-07T02:48:28;13.70;99.90
20068;DHT22;10194;50.824;7.134;2023-05-07T02:50:54;13.60;99.90
20068;DHT22;10194;50.824;7.134;2023-05-07T02:53:19;13.60;99.90
20068;DHT22;10194;50.824;7.134;2023-05-07T02:55:45;13.70;99.90
20068;DHT22;10194;50.824;7.134;2023-05-07T02:58:11;13.70;99.90
20068;DHT22;10194;50.824;7.134;2023-05-07T03:00:37;13.70;99.90
20068;DHT22;10194;50.824;7.134;2023-05-07T03:03:02;13.60;99.90
20068;DHT22;10194;50.824;7.134;2023-05-07T03:05:28;13.50;99.90
20068;DHT22;10194;50.824;7.134;2023-05-07T03:07:54;13.40;99.90
20068;DHT22;10194;50.824;7.134;2023-05-07T03:10:20;13.40;99.90
20068;DHT22;10194;50.824;7.134;2023-05-07T03:12:45;13.30;99.90
20068;DHT22;10194;50.824;7.134;2023-05-07T03:15:11;13.20;99.90
20068;DHT22;10194;50.824;7.134;2023-05-07T03:17:38;13.20;99.90
20068;DHT22;10194;50.824;7.134;2023-05-07T03:20:04;13.30;99.90
20068;DHT22;10194;50.824;7.134;2023-05-07T03:22:31;13.20;99.90
20068;DHT22;10194;50.824;7.134;2023-05-07T03:24:56;13.20;99.90
20068;DHT22;10194;50.824;7.134;2023-05-07T03:27:22;13.20;99.90
20068;DHT22;10194;50.824;7.134;2023-05-07T03:29:48;13.20;99.90
20068;DHT22;10194;50.824;7.134;2023-05-07T03:32:14;13.20;99.90
20068;DHT22;10194;50.824;7.134;2023-05-07T03:34:39;13.20;99.90
20068;DHT22;10194;50.824;7.134;2023-05-07T03:37:05;13.20;99.90
20068;DHT22;10194;50.824;7.134;2023-05-07T03:39:31;13.10;99.90
20068;DHT22;10194;50.824;7.134;2023-05-07T03:41:57;13.20;99.90
20068;DHT22;10194;50.824;7.134;2023-05-07T03:44:23;13.10;99.90
20068;DHT22;10194;50.824;7.134;2023-05-07T03:46:49;13.20;99.90
20068;DHT22;10194;50.824;7.134;2023-05-07T03:49:15;13.10;99.90
20068;DHT22;10194;50.824;7.134;2023-05-07T03:51:41;13.10;99.90
20068;DHT22;10194;50.824;7.134;2023-05-07T03:54:07;13.20;99.90
20068;DHT22;10194;50.824;7.134;2023-05-07T03:56:33;13.20;99.90
20068;DHT22;10194;50.824;7.134;2023-05-07T03:58:59;13.20;99.90
20068;DHT22;10194;50.824;7.134;2023-05-07T04:01:25;13.10;99.90
20068;DHT22;10194;50.824;7.134;2023-05-07T04:03:51;13.10;99.90
20068;DHT22;10194;50.824;7.134;2023-05-07T04:06:17;13.10;99.90
20068;DHT22;10194;50.824;7.134;2023-05-07T04:08:43;13.10;99.90
20068;DHT22;10194;50.824;7.134;2023-05-07T04:11:09;13.10;99.90
20068;DHT22;10194;50.824;7.134;2023-05-07T04:13:34;13.10;99.90
20068;DHT22;10194;50.824;7.134;2023-05-07T04:16:02;13.10;99.90
20068;DHT22;10194;50.824;7.134;2023-05-07T04:18:29;13.10;99.90
20068;DHT22;10194;50.824;7.134;2023-05-07T04:20:55;13.10;99.90
20068;DHT22;10194;50.824;7.134;2023-05-07T04:23:20;13.10;99.90
20068;DHT22;10194;50.824;7.134;2023-05-07T04:25:46;13.10;99.90
20068;DHT22;10194;50.824;7.134;2023-05-07T04:28:12;13.10;99.90
20068;DHT22;10194;50.824;7.134;2023-05-07T04:30:38;13.10;99.90
20068;DHT22;10194;50.824;7.134;2023-05-07T04:33:04;13.20;99.90
20068;DHT22;10194;50.824;7.134;2023-05-07T04:35:30;13.30;99.90
20068;DHT22;10194;50.824;7.134;2023-05-07T04:37:56;13.30;99.90
20068;DHT22;10194;50.824;7.134;2023-05-07T04:40:22;13.40;99.90
20068;DHT22;10194;50.824;7.134;2023-05-07T04:42:47;13.40;99.90
20068;DHT22;10194;50.824;7.134;2023-05-07T04:45:13;13.40;99.90
20068;DHT22;10194;50.824;7.134;2023-05-07T04:47:39;13.50;99.90
20068;DHT22;10194;50.824;7.134;2023-05-07T04:50:06;13.50;99.90
20068;DHT22;10194;50.824;7.134;2023-05-07T04:52:33;13.50;99.90
20068;DHT22;10194;50.824;7.134;2023-05-07T04:55:00;13.50;99.90
20068;DHT22;10194;50.824;7.134;2023-05-07T04:57:26;13.50;99.90
20068;DHT22;10194;50.824;7.134;2023-05-07T04:59:53;13.60;99.90
20068;DHT22;10194;50.824;7.134;2023-05-07T05:02:19;13.60;99.90
20068;DHT22;10194;50.824;7.134;2023-05-07T05:04:45;13.60;99.90
20068;DHT22;10194;50.824;7.134;2023-05-07T05:07:10;13.70;99.90
20068;DHT22;10194;50.824;7.134;2023-05-07T05:09:36;13.70;99.90
20068;DHT22;10194;50.824;7.134;2023-05-07T05:12:02;13.70;99.90
20068;DHT22;10194;50.824;7.134;2023-05-07T05:14:29;13.80;99.90
20068;DHT22;10194;50.824;7.134;2023-05-07T05:16:55;13.80;99.90
20068;DHT22;10194;50.824;7.134;2023-05-07T05:19:20;13.90;99.90
20068;DHT22;10194;50.824;7.134;2023-05-07T05:21:46;14.00;99.90
20068;DHT22;10194;50.824;7.134;2023-05-07T05:24:12;14.10;99.90
20068;DHT22;10194;50.824;7.134;2023-05-07T05:26:38;14.30;99.90
20068;DHT22;10194;50.824;7.134;2023-05-07T05:29:03;14.50;99.90
20068;DHT22;10194;50.824;7.134;2023-05-07T05:31:29;14.70;99.90
20068;DHT22;10194;50.824;7.134;2023-05-07T05:33:55;14.80;99.90
20068;DHT22;10194;50.824;7.134;2023-05-07T05:36:21;14.90;99.90
20068;DHT22;10194;50.824;7.134;2023-05-07T05:38:47;14.90;99.90
20068;DHT22;10194;50.824;7.134;2023-05-07T05:41:12;14.90;99.90
20068;DHT22;10194;50.824;7.134;2023-05-07T05:43:38;15.00;99.90
20068;DHT22;10194;50.824;7.134;2023-05-07T05:46:04;15.10;99.90
20068;DHT22;10194;50.824;7.134;2023-05-07T05:48:30;15.20;99.90
20068;DHT22;10194;50.824;7.134;2023-05-07T05:50:55;15.20;99.90
20068;DHT22;10194;50.824;7.134;2023-05-07T05:53:21;15.20;99.90
20068;DHT22;10194;50.824;7.134;2023-05-07T05:55:47;15.30;99.90
20068;DHT22;10194;50.824;7.134;2023-05-07T05:58:13;15.30;99.90
20068;DHT22;10194;50.824;7.134;2023-05-07T06:00:40;15.30;99.90
20068;DHT22;10194;50.824;7.134;2023-05-07T06:03:06;15.30;99.90
20068;DHT22;10194;50.824;7.134;2023-05-07T06:05:31;15.20;99.90
20068;DHT22;10194;50.824;7.134;2023-05-07T06:07:57;15.30;99.90
20068;DHT22;10194;50.824;7.134;2023-05-07T06:10:23;15.30;99.90
20068;DHT22;10194;50.824;7.134;2023-05-07T06:12:49;15.40;99.90
20068;DHT22;10194;50.824;7.134;2023-05-07T06:15:15;15.50;99.90
20068;DHT22;10194;50.824;7.134;2023-05-07T06:17:41;15.50;99.90
20068;DHT22;10194;50.824;7.134;2023-05-07T06:20:07;15.70;99.90
20068;DHT22;10194;50.824;7.134;2023-05-07T06:22:33;15.80;99.90
20068;DHT22;10194;50.824;7.134;2023-05-07T06:24:59;15.80;99.90
20068;DHT22;10194;50.824;7.134;2023-05-07T06:27:25;15.90;99.90
20068;DHT22;10194;50.824;7.134;2023-05-07T06:29:50;15.80;99.90
20068;DHT22;10194;50.824;7.134;2023-05-07T06:32:16;15.90;99.90
20068;DHT22;10194;50.824;7.134;2023-05-07T06:34:42;16.00;99.90
20068;DHT22;10194;50.824;7.134;2023-05-07T06:37:08;16.10;99.90
20068;DHT22;10194;50.824;7.134;2023-05-07T06:39:34;16.10;99.90
20068;DHT22;10194;50.824;7.134;2023-05-07T06:42:00;16.20;99.90
20068;DHT22;10194;50.824;7.134;2023-05-07T06:44:27;16.20;99.90
20068;DHT22;10194;50.824;7.134;2023-05-07T06:46:53;16.40;99.90
20068;DHT22;10194;50.824;7.134;2023-05-07T06:49:19;16.30;99.90
20068;DHT22;10194;50.824;7.134;2023-05-07T06:51:45;16.30;99.90
20068;DHT22;10194;50.824;7.134;2023-05-07T06:54:10;16.40;99.90
20068;DHT22;10194;50.824;7.134;2023-05-07T06:56:36;16.60;99.90
20068;DHT22;10194;50.824;7.134;2023-05-07T06:59:03;16.60;99.90
20068;DHT22;10194;50.824;7.134;2023-05-07T07:01:29;16.40;99.90
20068;DHT22;10194;50.824;7.134;2023-05-07T07:03:55;16.50;99.90
20068;DHT22;10194;50.824;7.134;2023-05-07T07:06:20;16.70;99.90
20068;DHT22;10194;50.824;7.134;2023-05-07T07:08:46;16.70;99.90
20068;DHT22;10194;50.824;7.134;2023-05-07T07:11:12;16.60;99.90
20068;DHT22;10194;50.824;7.134;2023-05-07T07:13:38;16.70;99.90
20068;DHT22;10194;50.824;7.134;2023-05-07T07:16:03;17.10;99.90
20068;DHT22;10194;50.824;7.134;2023-05-07T07:18:29;17.70;99.90
20068;DHT22;10194;50.824;7.134;2023-05-07T07:20:55;18.70;99.90
20068;DHT22;10194;50.824;7.134;2023-05-07T07:23:21;19.60;99.90
20068;DHT22;10194;50.824;7.134;2023-05-07T07:25:47;19.60;99.90
20068;DHT22;10194;50.824;7.134;2023-05-07T07:28:13;20.30;99.90
20068;DHT22;10194;50.824;7.134;2023-05-07T07:30:38;19.90;99.90
20068;DHT22;10194;50.824;7.134;2023-05-07T07:33:04;19.80;99.90
20068;DHT22;10194;50.824;7.134;2023-05-07T07:35:34;19.30;99.90
20068;DHT22;10194;50.824;7.134;2023-05-07T07:38:00;19.30;99.90
20068;DHT22;10194;50.824;7.134;2023-05-07T07:40:27;19.20;99.90
20068;DHT22;10194;50.824;7.134;2023-05-07T07:42:53;18.60;99.90
20068;DHT22;10194;50.824;7.134;2023-05-07T07:45:20;18.80;99.90
20068;DHT22;10194;50.824;7.134;2023-05-07T07:47:46;18.60;99.90
20068;DHT22;10194;50.824;7.134;2023-05-07T07:50:12;18.40;99.90
20068;DHT22;10194;50.824;7.134;2023-05-07T07:52:37;18.30;99.90
20068;DHT22;10194;50.824;7.134;2023-05-07T07:55:04;18.50;99.90
20068;DHT22;10194;50.824;7.134;2023-05-07T07:57:30;18.70;99.90
20068;DHT22;10194;50.824;7.134;2023-05-07T07:59:56;18.50;99.90
20068;DHT22;10194;50.824;7.134;2023-05-07T08:02:22;18.30;99.90
20068;DHT22;10194;50.824;7.134;2023-05-07T08:04:47;18.40;99.90
20068;DHT22;10194;50.824;7.134;2023-05-07T08:07:13;18.60;99.90
20068;DHT22;10194;50.824;7.134;2023-05-07T08:09:40;18.70;99.90
20068;DHT22;10194;50.824;7.134;2023-05-07T08:12:06;18.90;99.90
20068;DHT22;10194;50.824;7.134;2023-05-07T08:14:33;18.80;99.90
20068;DHT22;10194;50.824;7.134;2023-05-07T08:16:59;18.70;99.90
20068;DHT22;10194;50.824;7.134;2023-05-07T08:19:25;18.30;99.90
20068;DHT22;10194;50.824;7.134;2023-05-07T08:21:51;18.50;99.90
20068;DHT22;10194;50.824;7.134;2023-05-07T08:24:17;18.70;99.90
20068;DHT22;10194;50.824;7.134;2023-05-07T08:26:43;19.00;99.90
20068;DHT22;10194;50.824;7.134;2023-05-07T08:29:09;19.10;99.90
20068;DHT22;10194;50.824;7.134;2023-05-07T08:31:35;19.10;99.90
20068;DHT22;10194;50.824;7.134;2023-05-07T08:34:02;19.20;99.90
20068;DHT22;10194;50.824;7.134;2023-05-07T08:36:28;19.40;99.90
20068;DHT22;10194;50.824;7.134;2023-05-07T08:38:54;19.60;99.90
20068;DHT22;10194;50.824;7.134;2023-05-07T08:41:20;19.50;99.90
20068;DHT22;10194;50.824;7.134;2023-05-07T08:43:50;19.60;99.90
20068;DHT22;10194;50.824;7.134;2023-05-07T08:46:19;19.70;99.90
20068;DHT22;10194;50.824;7.134;2023-05-07T08:48:48;19.40;99.90
20068;DHT22;10194;50.824;7.134;2023-05-07T08:51:20;19.10;99.90
20068;DHT22;10194;50.824;7.134;2023-05-07T08:53:48;19.50;99.90
20068;DHT22;10194;50.824;7.134;2023-05-07T08:56:14;20.00;99.90
20068;DHT22;10194;50.824;7.134;2023-05-07T08:58:42;20.10;99.90
20068;DHT22;10194;50.824;7.134;2023-05-07T09:01:09;20.40;99.90
20068;DHT22;10194;50.824;7.134;2023-05-07T09:03:38;20.80;99.90
20068;DHT22;10194;50.824;7.134;2023-05-07T09:06:05;21.00;99.90
20068;DHT22;10194;50.824;7.134;2023-05-07T09:08:33;20.90;99.90
20068;DHT22;10194;50.824;7.134;2023-05-07T09:10:59;21.00;99.90
20068;DHT22;10194;50.824;7.134;2023-05-07T09:13:26;21.00;99.90
20068;DHT22;10194;50.824;7.134;2023-05-07T09:15:54;21.00;99.90
20068;DHT22;10194;50.824;7.134;2023-05-07T09:18:20;21.00;99.90
20068;DHT22;10194;50.824;7.134;2023-05-07T09:20:46;21.00;99.90
20068;DHT22;10194;50.824;7.134;2023-05-07T09:23:12;21.00;99.90
20068;DHT22;10194;50.824;7.134;2023-05-07T09:25:38;21.40;99.90
20068;DHT22;10194;50.824;7.134;2023-05-07T09:28:04;21.40;99.90
20068;DHT22;10194;50.824;7.134;2023-05-07T09:30:35;21.20;99.90
20068;DHT22;10194;50.824;7.134;2023-05-07T09:33:03;20.90;99.90
20068;DHT22;10194;50.824;7.134;2023-05-07T09:35:30;20.70;99.90
20068;DHT22;10194;50.824;7.134;2023-05-07T09:37:57;21.10;99.90
20068;DHT22;10194;50.824;7.134;2023-05-07T09:40:28;21.20;99.90
20068;DHT22;10194;50.824;7.134;2023-05-07T09:42:55;21.60;99.90
20068;DHT22;10194;50.824;7.134;2023-05-07T09:45:25;21.30;99.90
20068;DHT22;10194;50.824;7.134;2023-05-07T09:47:54;21.10;99.90
20068;DHT22;10194;50.824;7.134;2023-05-07T09:50:36;21.40;99.90
20068;DHT22;10194;50.824;7.134;2023-05-07T09:53:04;21.60;99.90
20068;DHT22;10194;50.824;7.134;2023-05-07T09:55:30;21.60;99.90
20068;DHT22;10194;50.824;7.134;2023-05-07T09:57:57;21.80;99.90
20068;DHT22;10194;50.824;7.134;2023-05-07T10:00:25;21.60;99.90
20068;DHT22;10194;50.824;7.134;2023-05-07T10:02:52;21.90;99.90
20068;DHT22;10194;50.824;7.134;2023-05-07T10:05:19;22.10;99.90
20068;DHT22;10194;50.824;7.134;2023-05-07T10:07:48;22.40;99.90
20068;DHT22;10194;50.824;7.134;2023-05-07T10:10:15;22.40;99.90
20068;DHT22;10194;50.824;7.134;2023-05-07T10:12:41;22.20;99.90
20068;DHT22;10194;50.824;7.134;2023-05-07T10:15:11;21.80;99.90
20068;DHT22;10194;50.824;7.134;2023-05-07T10:17:38;21.70;99.90
20068;DHT22;10194;50.824;7.134;2023-05-07T10:20:05;21.90;99.90
20068;DHT22;10194;50.824;7.134;2023-05-07T10:22:38;22.50;99.90
20068;DHT22;10194;50.824;7.134;2023-05-07T10:25:13;22.90;99.90
20068;DHT22;10194;50.824;7.134;2023-05-07T10:27:43;22.80;99.90
20068;DHT22;10194;50.824;7.134;2023-05-07T10:30:24;22.40;99.90
20068;DHT22;10194;50.824;7.134;2023-05-07T10:32:56;22.80;99.90
20068;DHT22;10194;50.824;7.134;2023-05-07T10:35:32;22.60;99.90
20068;DHT22;10194;50.824;7.134;2023-05-07T10:38:04;22.30;99.90
20068;DHT22;10194;50.824;7.134;2023-05-07T10:40:30;22.60;99.90
20068;DHT22;10194;50.824;7.134;2023-05-07T10:43:01;22.50;99.90
20068;DHT22;10194;50.824;7.134;2023-05-07T10:45:29;22.20;99.90
20068;DHT22;10194;50.824;7.134;2023-05-07T10:50:35;22.50;99.90
20068;DHT22;10194;50.824;7.134;2023-05-07T10:55:43;23.20;99.90
20068;DHT22;10194;50.824;7.134;2023-05-07T10:58:25;23.10;99.90
20068;DHT22;10194;50.824;7.134;2023-05-07T11:01:00;23.20;99.90
20068;DHT22;10194;50.824;7.134;2023-05-07T11:03:27;23.00;99.90
20068;DHT22;10194;50.824;7.134;2023-05-07T11:06:14;22.80;99.90
20068;DHT22;10194;50.824;7.134;2023-05-07T11:11:18;22.90;99.90
20068;DHT22;10194;50.824;7.134;2023-05-07T11:13:47;23.00;99.90
20068;DHT22;10194;50.824;7.134;2023-05-07T11:16:24;23.10;99.90
20068;DHT22;10194;50.824;7.134;2023-05-07T11:18:54;23.20;99.90
20068;DHT22;10194;50.824;7.134;2023-05-07T11:24:06;23.30;99.90
20068;DHT22;10194;50.824;7.134;2023-05-07T11:26:46;23.50;99.90
20068;DHT22;10194;50.824;7.134;2023-05-07T11:29:20;23.50;99.90
20068;DHT22;10194;50.824;7.134;2023-05-07T11:31:53;23.20;99.90
20068;DHT22;10194;50.824;7.134;2023-05-07T11:34:24;23.10;99.90
20068;DHT22;10194;50.824;7.134;2023-05-07T11:36:51;23.10;99.90
20068;DHT22;10194;50.824;7.134;2023-05-07T11:39:31;23.20;99.90
20068;DHT22;10194;50.824;7.134;2023-05-07T11:41:59;23.10;99.30
20068;DHT22;10194;50.824;7.134;2023-05-07T11:44:38;23.30;99.90
20068;DHT22;10194;50.824;7.134;2023-05-07T11:47:06;23.30;96.60
20068;DHT22;10194;50.824;7.134;2023-05-07T11:49:32;23.30;97.80
20068;DHT22;10194;50.824;7.134;2023-05-07T11:51:57;23.30;98.80
20068;DHT22;10194;50.824;7.134;2023-05-07T11:54:23;23.60;99.40
20068;DHT22;10194;50.824;7.134;2023-05-07T11:56:49;23.60;95.90
20068;DHT22;10194;50.824;7.134;2023-05-07T11:59:18;23.70;97.80
20068;DHT22;10194;50.824;7.134;2023-05-07T12:01:47;23.80;97.40
20068;DHT22;10194;50.824;7.134;2023-05-07T12:04:13;23.70;96.10
20068;DHT22;10194;50.824;7.134;2023-05-07T12:06:39;23.60;95.90
20068;DHT22;10194;50.824;7.134;2023-05-07T12:09:05;23.70;96.50
20068;DHT22;10194;50.824;7.134;2023-05-07T12:11:32;23.80;95.80
20068;DHT22;10194;50.824;7.134;2023-05-07T12:13:59;24.20;99.30
20068;DHT22;10194;50.824;7.134;2023-05-07T12:16:24;24.10;95.70
20068;DHT22;10194;50.824;7.134;2023-05-07T12:18:51;24.10;97.10
20068;DHT22;10194;50.824;7.134;2023-05-07T12:21:20;24.10;97.70
20068;DHT22;10194;50.824;7.134;2023-05-07T12:23:46;24.10;98.00
20068;DHT22;10194;50.824;7.134;2023-05-07T12:26:12;24.00;99.80
20068;DHT22;10194;50.824;7.134;2023-05-07T12:28:38;23.90;99.10
20068;DHT22;10194;50.824;7.134;2023-05-07T12:31:05;23.70;99.70
20068;DHT22;10194;50.824;7.134;2023-05-07T12:33:31;23.50;99.70
20068;DHT22;10194;50.824;7.134;2023-05-07T12:35:58;23.40;99.90
20068;DHT22;10194;50.824;7.134;2023-05-07T12:38:37;23.20;99.90
20068;DHT22;10194;50.824;7.134;2023-05-07T12:41:04;23.10;99.90
20068;DHT22;10194;50.824;7.134;2023-05-07T12:43:30;23.00;99.90
20068;DHT22;10194;50.824;7.134;2023-05-07T12:45:57;22.90;99.90
20068;DHT22;10194;50.824;7.134;2023-05-07T12:48:26;22.70;99.90
20068;DHT22;10194;50.824;7.134;2023-05-07T12:51:00;22.50;99.90
20068;DHT22;10194;50.824;7.134;2023-05-07T12:53:30;22.50;99.90
20068;DHT22;10194;50.824;7.134;2023-05-07T12:55:58;22.40;99.90
20068;DHT22;10194;50.824;7.134;2023-05-07T12:58:30;22.20;99.90
20068;DHT22;10194;50.824;7.134;2023-05-07T13:01:00;21.90;99.90
20068;DHT22;10194;50.824;7.134;2023-05-07T13:03:31;21.80;99.90
20068;DHT22;10194;50.824;7.134;2023-05-07T13:06:03;21.70;99.90
20068;DHT22;10194;50.824;7.134;2023-05-07T13:08:37;21.70;99.90
20068;DHT22;10194;50.824;7.134;2023-05-07T13:11:07;21.70;99.90
20068;DHT22;10194;50.824;7.134;2023-05-07T13:13:34;21.70;99.90
20068;DHT22;10194;50.824;7.134;2023-05-07T13:16:02;21.80;99.90
20068;DHT22;10194;50.824;7.134;2023-05-07T13:18:32;21.70;99.90
20068;DHT22;10194;50.824;7.134;2023-05-07T13:20:59;21.70;99.90
20068;DHT22;10194;50.824;7.134;2023-05-07T13:23:26;21.80;99.90
20068;DHT22;10194;50.824;7.134;2023-05-07T13:25:52;21.80;99.90
20068;DHT22;10194;50.824;7.134;2023-05-07T13:28:19;21.60;99.90
20068;DHT22;10194;50.824;7.134;2023-05-07T13:30:46;21.50;99.90
20068;DHT22;10194;50.824;7.134;2023-05-07T13:33:12;21.50;99.90
20068;DHT22;10194;50.824;7.134;2023-05-07T13:35:41;21.60;99.90
20068;DHT22;10194;50.824;7.134;2023-05-07T13:38:07;21.70;99.90
20068;DHT22;10194;50.824;7.134;2023-05-07T13:40:33;21.70;99.90
20068;DHT22;10194;50.824;7.134;2023-05-07T13:42:59;21.60;99.90
20068;DHT22;10194;50.824;7.134;2023-05-07T13:45:29;21.50;99.90
20068;DHT22;10194;50.824;7.134;2023-05-07T13:47:58;21.60;99.90
20068;DHT22;10194;50.824;7.134;2023-05-07T13:50:24;21.60;99.90
20068;DHT22;10194;50.824;7.134;2023-05-07T13:52:52;21.60;99.90
20068;DHT22;10194;50.824;7.134;2023-05-07T13:55:18;21.60;99.90
20068;DHT22;10194;50.824;7.134;2023-05-07T13:57:45;21.60;99.90
20068;DHT22;10194;50.824;7.134;2023-05-07T14:00:12;21.60;99.90
20068;DHT22;10194;50.824;7.134;2023-05-07T14:02:39;21.60;99.90
20068;DHT22;10194;50.824;7.134;2023-05-07T14:05:06;21.60;99.90
20068;DHT22;10194;50.824;7.134;2023-05-07T14:07:32;21.70;99.90
20068;DHT22;10194;50.824;7.134;2023-05-07T14:09:58;21.60;99.90
20068;DHT22;10194;50.824;7.134;2023-05-07T14:12:25;21.60;99.90
20068;DHT22;10194;50.824;7.134;2023-05-07T14:14:51;21.50;99.90
20068;DHT22;10194;50.824;7.134;2023-05-07T14:17:17;21.60;99.90
20068;DHT22;10194;50.824;7.134;2023-05-07T14:19:43;21.70;99.90
20068;DHT22;10194;50.824;7.134;2023-05-07T14:22:09;21.80;99.90
20068;DHT22;10194;50.824;7.134;2023-05-07T14:24:35;21.80;99.90
20068;DHT22;10194;50.824;7.134;2023-05-07T14:27:01;21.90;99.90
20068;DHT22;10194;50.824;7.134;2023-05-07T14:29:27;22.00;99.90
20068;DHT22;10194;50.824;7.134;2023-05-07T14:31:53;22.00;99.90
20068;DHT22;10194;50.824;7.134;2023-05-07T14:34:19;22.10;99.90
20068;DHT22;10194;50.824;7.134;2023-05-07T14:36:45;22.20;99.90
20068;DHT22;10194;50.824;7.134;2023-05-07T14:39:11;22.10;99.90
20068;DHT22;10194;50.824;7.134;2023-05-07T14:41:37;21.80;99.90
20068;DHT22;10194;50.824;7.134;2023-05-07T14:44:03;21.80;99.90
20068;DHT22;10194;50.824;7.134;2023-05-07T14:46:29;21.70;99.90
20068;DHT22;10194;50.824;7.134;2023-05-07T14:48:56;21.50;99.90
20068;DHT22;10194;50.824;7.134;2023-05-07T14:51:23;21.30;99.90
20068;DHT22;10194;50.824;7.134;2023-05-07T14:53:50;21.10;99.90
20068;DHT22;10194;50.824;7.134;2023-05-07T14:56:16;21.00;99.90
20068;DHT22;10194;50.824;7.134;2023-05-07T14:58:43;20.80;99.90
20068;DHT22;10194;50.824;7.134;2023-05-07T15:01:09;20.80;99.90
20068;DHT22;10194;50.824;7.134;2023-05-07T15:03:35;20.80;99.90
20068;DHT22;10194;50.824;7.134;2023-05-07T15:06:02;20.80;99.90
20068;DHT22;10194;50.824;7.134;2023-05-07T15:08:28;20.60;99.90
20068;DHT22;10194;50.824;7.134;2023-05-07T15:10:54;20.50;99.90
20068;DHT22;10194;50.824;7.134;2023-05-07T15:13:21;20.40;99.90
20068;DHT22;10194;50.824;7.134;2023-05-07T15:15:47;20.30;99.90
20068;DHT22;10194;50.824;7.134;2023-05-07T15:18:13;20.30;99.90
20068;DHT22;10194;50.824;7.134;2023-05-07T15:20:40;20.20;99.90
20068;DHT22;10194;50.824;7.134;2023-05-07T15:23:08;20.20;99.90
20068;DHT22;10194;50.824;7.134;2023-05-07T15:25:40;20.10;99.90
20068;DHT22;10194;50.824;7.134;2023-05-07T15:28:06;20.10;99.90
20068;DHT22;10194;50.824;7.134;2023-05-07T15:30:32;20.00;99.90
20068;DHT22;10194;50.824;7.134;2023-05-07T15:32:58;19.90;99.90
20068;DHT22;10194;50.824;7.134;2023-05-07T15:35:24;19.80;99.90
20068;DHT22;10194;50.824;7.134;2023-05-07T15:37:51;19.70;99.90
20068;DHT22;10194;50.824;7.134;2023-05-07T15:40:17;19.70;99.90